WEATHER DATA

TODAY
Time Temp. Dewp. Hum. Bar.
00:00 -0.8 -3.5 80 1014.6
00:10 -0.9 -3.7 79 1014.6
00:20 -1 -3.8 79 1014.4
00:30 -1.1 -4.1 78 1014.1
00:40 -1.2 -4.2 78 1014
00:50 -1.2 -4.2 78 1013.7
01:01 -1.3 -4.3 78 1013.5
01:11 -1.3 -4.3 78 1013.5
01:20 -1.3 -4.3 78 1013.3
01:30 -1.4 -4.4 78 1013.3
01:41 -1.4 -4.4 78 1013.3
01:51 -1.5 -4.6 77 1013.1
02:01 -1.5 -4.6 77 1013.1
02:11 -1.5 -4.6 77 1013
02:21 -1.5 -4.8 76 1012.9
02:31 -1.5 -4.8 76 1012.9
02:41 -1.6 -5 75 1012.9
02:52 -1.6 -5 75 1012.7
03:02 -1.5 -4.9 75 1012.5
03:11 -1.6 -5 75 1012.4
03:21 -1.6 -5 75 1012.2
03:32 -1.6 -5 75 1012.1
03:42 -1.6 -5 75 1012.1
03:52 -1.6 -5 75 1011.9
04:02 -1.7 -5.3 74 1011.7
04:12 -1.7 -5.1 75 1011.6
04:22 -1.7 -5.3 74 1011.5
04:32 -1.9 -5.3 75 1011.4
04:43 -2.2 -5.6 75 1011.3
04:52 -2.1 -5.5 75 1011.2
05:02 -2.2 -5.7 74 1011.2
05:13 -2.5 -6 74 1011.2
05:23 -2.7 -6.1 75 1011.1
05:33 -2.9 -6.4 74 1011.2
05:43 -3 -6.5 74 1011
05:53 -3.1 -6.5 75 1011
06:03 -3.1 -6.5 75 1010.9
06:13 -3 -6.2 76 1010.8
06:23 -2.8 -6.2 75 1010.8
06:34 -2.7 -6.1 75 1010.8
06:43 -2.6 -6.3 73 1010.8
06:53 -2.5 -6.4 72 1010.8
07:04 -2.5 -6.5 71 1010.6
07:14 -2.4 -6.6 70 1010.6
07:24 -2.4 -6.6 70 1010.6
07:34 -2.5 -6.7 70 1010.8
07:44 -2.6 -6.8 70 1010.6
07:54 -2.7 -6.9 70 1010.6
08:04 -2.8 -6.8 71 1010.6
08:15 -2.8 -6.7 72 1010.5
08:24 -2.8 -6.7 72 1010.5
08:34 -2.7 -6.6 72 1010.4
08:44 -2.6 -6.5 72 1010.3
08:55 -2.3 -6 73 1010.2
09:05 -2.1 -5.8 73 1010.3
09:15 -1.9 -5.6 73 1010.3
09:35 -1.7 -5.4 73 1010.2
09:45 -1.5 -5.2 73 1010.2
09:55 -1.1 -4.8 73 1010.2
10:06 -0.9 -4.6 73 1010.3
10:15 -0.7 -4.4 73 1010.2
10:36 -0.5 -4.4 72 1010
10:46 -0.5 -4.4 72 1009.9
10:56 -0.4 -4.3 72 1009.9
11:06 -0.4 -4.3 72 1009.9
11:16 -0.3 -4.2 72 1009.9
11:26 -0.4 -4.5 71 1009.8
11:36 -0.5 -4.6 71 1009.6
11:46 -0.3 -4.2 72 1009.4
11:57 -0.1 -4.2 71 1009.3
12:06 0 -4.1 71 1009.1
12:16 0.2 -3.8 72 1009.1

DAY STATISTIC

2018-11-19
TEMPERATURE
AVERAGE
-1.7
HIGH
0.2
12:16
LOW
-3.1
05:53
PRESSURE
AVERAGE
1011.4
HIGH
1014.6
00:00
LOW
1009.1
12:06
DEWPOINT
AVERAGE
-5.2
HIGH
-3.5
00:00
LOW
-6.9
07:54
HUMIDITY
AVERAGE
74
HIGH
80
00:00
LOW
70
07:14
TEMPERATURE (°C)
LOW
-3.1
HIGH
0.2
AVERAGE
-1.7
PRESSURE (hpa)
LOW
1009.1
HIGH
1014.6
AVERAGE
1011.4
DEVICE